KMIE/MIE METAR and TAF weather

Enter ICAO airport designator
Station Type Date Time Source
KMIE METAR 2019/08/22 08:53 UTC NOAA

KMIE 220853Z AUTO 26005KT 10SM -RA OVC090 24/21 A2997 RMK AO2 RAB47 SLP135 P0000 60000 T02390211 53000


Station Type Date Time Source
KMIE Decoded METAR 2019/08/22 08:53 UTC NOAA

Station name not available
Aug 22, 2019 - 04:53 AM EDT / 2019.08.22 0853 UTC
Wind: from the W (260 degrees) at 6 MPH (5 KT):0
Visibility: 10 mile(s):0
Sky conditions: overcast
Weather: light rain
Precipitation last hour: A trace
Temperature: 75.0 F (23.9 C)
Dew Point: 70.0 F (21.1 C)
Relative Humidity: 84%
Pressure (altimeter): 29.97 in. Hg (1014 hPa)
Pressure tendency: 0.00 inches (0.0 hPa) higher than three hours ago
ob: KMIE 220853Z AUTO 26005KT 10SM -RA OVC090 24/21 A2997 RMK AO2 RAB47 SLP135 P0000 60000 T02390211 53000
cycle: 9

Station Type Date Time Source
KMIE TAF UTC NOAA

Error!

Example: see airport list